This is the latest recevied weather packets stored in our database for station/object DK6SC-10. If no packets are shown the sender has not sent any weather packets the latest 1 day(s).
| Time | Temp. | Humidity | Pressure | Rain* | Wind** | Luminosity | Snow |
|---|---|---|---|---|---|---|---|
| 1788291103 | 17.22° C | 59% | 985.8 hPa | - | - | - | - |
| 1788290202 | 18.33° C | 56% | 985.6 hPa | - | - | - | - |
| 1788289303 | 17.78° C | 57% | 985.7 hPa | - | - | - | - |
| 1788288403 | 18.33° C | 55% | 985.5 hPa | - | - | - | - |
| 1788287502 | 18.33° C | 55% | 985.4 hPa | - | - | - | - |
| 1788286602 | 18.89° C | 52% | 985.2 hPa | - | - | - | - |
| 1788285702 | 20° C | 48% | 985 hPa | - | - | - | - |
| 1788284802 | 20.56° C | 46% | 985.1 hPa | - | - | - | - |
| 1788283902 | 21.11° C | 43% | 985 hPa | - | - | - | - |
| 1788283002 | 21.67° C | 40% | 985 hPa | - | - | - | - |
| 1788282102 | 22.22° C | 38% | 985 hPa | - | - | - | - |
| 1788281202 | 23.33° C | 37% | 985.1 hPa | - | - | - | - |
| 1788280302 | 23.89° C | 36% | 985.1 hPa | - | - | - | - |
| 1788279402 | 23.89° C | 36% | 985.2 hPa | - | - | - | - |
| 1788278502 | 25° C | 33% | 985.2 hPa | - | - | - | - |
| 1788277602 | 25.56° C | 33% | 985.1 hPa | - | - | - | - |
| 1788276702 | 26.11° C | 32% | 985.1 hPa | - | - | - | - |
| 1788275802 | 27.22° C | 29% | 985.1 hPa | - | - | - | - |
| 1788274902 | 32.22° C | 22% | 985 hPa | - | - | - | - |
| 1788274001 | 33.89° C | 21% | 984.9 hPa | - | - | - | - |
| 1788273101 | 34.44° C | 20% | 985 hPa | - | - | - | - |
| 1788272201 | 32.78° C | 22% | 985.1 hPa | - | - | - | - |
| 1788271301 | 32.78° C | 21% | 985.3 hPa | - | - | - | - |
| 1788270401 | 31.67° C | 22% | 985.4 hPa | - | - | - | - |
| 1788269501 | 31.11° C | 23% | 985.3 hPa | - | - | - | - |
* Rain since midnight (hover to see other rain measurements)
** Current wind speed in m/s (hover to see current wind gust speed)